createdAt,value
2018-05-25T00:00:26.818Z,22.56
2018-05-25T00:00:58.392Z,22.55
2018-05-25T00:01:29.978Z,22.55
2018-05-25T00:02:01.577Z,22.55
2018-05-25T00:02:33.202Z,22.54
2018-05-25T00:03:04.768Z,22.54
2018-05-25T00:03:36.360Z,22.44
2018-05-25T00:04:07.969Z,22.54
2018-05-25T00:04:39.553Z,22.52
2018-05-25T00:05:11.134Z,22.51
2018-05-25T00:05:42.720Z,22.52
2018-05-25T00:06:14.331Z,22.54
2018-05-25T00:06:45.982Z,22.54
2018-05-25T00:07:17.574Z,22.55
2018-05-25T00:07:49.153Z,22.54
2018-05-25T00:08:20.767Z,22.54
2018-05-25T00:08:52.348Z,22.55
2018-05-25T00:09:24.205Z,22.55
2018-05-25T00:09:55.847Z,22.58
2018-05-25T00:10:27.454Z,22.58
2018-05-25T00:10:59.038Z,22.58
2018-05-25T00:11:30.622Z,22.57
2018-05-25T00:12:02.192Z,22.58
2018-05-25T00:12:33.778Z,22.59
2018-05-25T00:13:05.368Z,22.58
2018-05-25T00:13:36.964Z,22.58
2018-05-25T00:14:08.550Z,22.59
2018-05-25T00:14:40.197Z,22.60
2018-05-25T00:15:11.802Z,22.59
2018-05-25T00:15:43.458Z,22.59
2018-05-25T00:16:15.032Z,22.60
2018-05-25T00:16:46.618Z,22.58
2018-05-25T00:17:18.188Z,22.59
2018-05-25T00:17:49.757Z,22.59
2018-05-25T00:18:21.324Z,22.59
2018-05-25T00:18:52.920Z,22.59
2018-05-25T00:19:24.534Z,22.59
2018-05-25T00:19:56.122Z,22.59
2018-05-25T00:20:27.721Z,22.60
2018-05-25T00:20:59.374Z,22.59
2018-05-25T00:21:30.964Z,22.58
2018-05-25T00:22:02.565Z,22.58
2018-05-25T00:22:34.174Z,22.59
2018-05-25T00:23:05.762Z,22.58
2018-05-25T00:23:37.365Z,22.57
2018-05-25T00:24:08.960Z,22.58
2018-05-25T00:24:40.604Z,22.58
2018-05-25T00:25:12.206Z,22.56
2018-05-25T00:25:43.854Z,22.57
2018-05-25T00:26:15.470Z,22.58
2018-05-25T00:26:47.086Z,22.58
2018-05-25T00:27:18.660Z,22.57
2018-05-25T00:27:50.229Z,22.57
2018-05-25T00:28:21.838Z,22.58
2018-05-25T00:28:53.426Z,22.57
2018-05-25T00:29:25.045Z,22.57
2018-05-25T00:29:56.659Z,22.58
2018-05-25T00:30:28.236Z,22.58
2018-05-25T00:30:59.857Z,22.58
2018-05-25T00:31:31.438Z,22.59
2018-05-25T00:32:03.029Z,22.59
2018-05-25T00:32:34.641Z,22.57
2018-05-25T00:33:06.213Z,22.58
2018-05-25T00:33:37.821Z,22.58
2018-05-25T00:34:09.450Z,22.57
2018-05-25T00:34:41.030Z,22.58
2018-05-25T00:35:12.610Z,22.58
2018-05-25T00:35:44.190Z,22.58
2018-05-25T00:36:15.756Z,22.58
2018-05-25T00:36:47.364Z,22.58
2018-05-25T00:37:19.050Z,22.59
2018-05-25T00:37:50.662Z,22.60
2018-05-25T00:38:22.245Z,22.58
2018-05-25T00:38:53.852Z,22.58
2018-05-25T00:39:25.465Z,22.58
2018-05-25T00:39:57.048Z,22.57
2018-05-25T00:40:28.630Z,22.56
2018-05-25T00:41:00.210Z,22.56
2018-05-25T00:41:31.804Z,22.56
2018-05-25T00:42:03.409Z,22.56
2018-05-25T00:42:35.044Z,22.56
2018-05-25T00:43:06.630Z,22.55
2018-05-25T00:43:38.210Z,22.55
2018-05-25T00:44:09.788Z,22.55
2018-05-25T00:44:41.369Z,22.55
2018-05-25T00:45:12.973Z,22.54
2018-05-25T00:45:44.557Z,22.54
2018-05-25T00:46:16.166Z,22.54
2018-05-25T00:46:47.754Z,22.54
2018-05-25T00:47:19.338Z,22.55
2018-05-25T00:47:50.964Z,22.56
2018-05-25T00:48:22.549Z,22.55
2018-05-25T00:48:54.226Z,22.56
2018-05-25T00:49:25.797Z,22.56
2018-05-25T00:49:57.465Z,22.56
2018-05-25T00:50:29.097Z,22.57
2018-05-25T00:51:00.637Z,22.57
2018-05-25T00:51:32.245Z,22.59
2018-05-25T00:52:03.830Z,22.66
2018-05-25T00:52:35.400Z,22.67
2018-05-25T00:53:07.026Z,22.64
2018-05-25T00:53:38.625Z,22.63
2018-05-25T00:54:10.206Z,22.61
2018-05-25T00:54:41.850Z,22.59
2018-05-25T00:55:13.466Z,22.60
2018-05-25T00:55:45.046Z,22.58
2018-05-25T00:56:16.620Z,22.55
2018-05-25T00:56:48.205Z,22.55
2018-05-25T00:57:19.820Z,22.54
2018-05-25T00:57:51.415Z,22.53
2018-05-25T00:58:23.002Z,22.51
2018-05-25T00:58:54.669Z,22.51
2018-05-25T00:59:26.248Z,22.49
2018-05-25T00:59:57.849Z,22.50
2018-05-25T01:00:29.457Z,22.49
2018-05-25T01:01:01.043Z,22.49
2018-05-25T01:01:32.620Z,22.48
2018-05-25T01:02:04.221Z,22.49
2018-05-25T01:02:35.826Z,22.49
2018-05-25T01:03:07.396Z,22.48
2018-05-25T01:03:38.972Z,22.47
2018-05-25T01:04:10.622Z,22.46
2018-05-25T01:04:42.192Z,22.48
2018-05-25T01:05:13.760Z,22.46
2018-05-25T01:05:45.352Z,22.48
2018-05-25T01:06:16.938Z,22.47
2018-05-25T01:06:48.546Z,22.47
2018-05-25T01:07:20.146Z,22.47
2018-05-25T01:07:51.773Z,22.46
2018-05-25T01:08:23.341Z,22.47
2018-05-25T01:08:54.918Z,22.46
2018-05-25T01:09:26.546Z,22.46
2018-05-25T01:09:58.149Z,22.46
2018-05-25T01:10:29.774Z,22.47
2018-05-25T01:11:01.354Z,22.48
2018-05-25T01:11:32.934Z,22.47
2018-05-25T01:12:04.538Z,22.47
2018-05-25T01:12:36.132Z,22.46
2018-05-25T01:13:07.732Z,22.46
2018-05-25T01:13:39.326Z,22.46
2018-05-25T01:14:10.913Z,22.47
2018-05-25T01:14:42.550Z,22.46
2018-05-25T01:15:14.148Z,22.46
2018-05-25T01:15:45.728Z,22.46
2018-05-25T01:16:17.300Z,22.47
2018-05-25T01:16:48.882Z,22.48
2018-05-25T01:17:20.466Z,22.47
2018-05-25T01:17:52.046Z,22.47
2018-05-25T01:18:23.654Z,22.47
2018-05-25T01:18:55.238Z,22.48
2018-05-25T01:19:26.822Z,22.48
2018-05-25T01:19:58.424Z,22.48
2018-05-25T01:20:30.007Z,22.47
2018-05-25T01:21:01.585Z,22.47
2018-05-25T01:21:33.231Z,22.46
2018-05-25T01:22:04.873Z,22.46
2018-05-25T01:22:36.486Z,22.45
2018-05-25T01:23:08.097Z,22.45
2018-05-25T01:23:39.745Z,22.45
2018-05-25T01:24:11.330Z,22.45
2018-05-25T01:24:42.914Z,22.45
2018-05-25T01:25:14.562Z,22.44
2018-05-25T01:25:46.167Z,22.47
2018-05-25T01:26:17.778Z,22.50
2018-05-25T01:26:49.363Z,22.54
2018-05-25T01:27:20.965Z,22.58
2018-05-25T01:27:52.594Z,22.63
2018-05-25T01:28:24.164Z,22.66
2018-05-25T01:28:55.756Z,22.64
2018-05-25T01:29:27.339Z,22.63
2018-05-25T01:29:59.202Z,22.64
2018-05-25T01:30:30.836Z,22.63
2018-05-25T01:31:02.433Z,22.63
2018-05-25T01:31:34.018Z,22.64
2018-05-25T01:32:05.621Z,22.63
2018-05-25T01:32:37.215Z,22.64
2018-05-25T01:33:08.801Z,22.64
2018-05-25T01:33:40.386Z,22.65
2018-05-25T01:34:11.990Z,22.64
2018-05-25T01:34:43.575Z,22.65
2018-05-25T01:35:15.152Z,22.64
2018-05-25T01:35:46.777Z,22.63
2018-05-25T01:36:18.426Z,22.61
2018-05-25T01:36:50.011Z,22.63
2018-05-25T01:37:21.617Z,22.64
2018-05-25T01:37:53.206Z,22.63
2018-05-25T01:38:24.818Z,22.62
2018-05-25T01:38:56.475Z,22.60
2018-05-25T01:39:28.085Z,22.59
2018-05-25T01:39:59.666Z,22.57
2018-05-25T01:40:31.274Z,22.56
2018-05-25T01:41:02.873Z,22.62
2018-05-25T01:41:34.547Z,22.75
2018-05-25T01:42:06.133Z,22.78
2018-05-25T01:42:37.718Z,22.79
2018-05-25T01:43:09.325Z,22.86
2018-05-25T01:43:40.919Z,22.86
2018-05-25T01:44:12.559Z,22.82
2018-05-25T01:44:44.156Z,22.80
2018-05-25T01:45:15.742Z,22.78
2018-05-25T01:45:47.341Z,22.76
2018-05-25T01:46:18.950Z,22.73
2018-05-25T01:46:50.534Z,22.70
2018-05-25T01:47:22.119Z,22.66
2018-05-25T01:47:53.722Z,22.64
2018-05-25T01:48:25.298Z,22.61
2018-05-25T01:48:56.899Z,22.58
2018-05-25T01:49:28.509Z,22.56
2018-05-25T01:50:00.158Z,22.53
2018-05-25T01:50:31.746Z,22.51
2018-05-25T01:51:03.346Z,22.49
2018-05-25T01:51:34.926Z,22.48
2018-05-25T01:52:06.534Z,22.48
2018-05-25T01:52:38.145Z,22.52
2018-05-25T01:53:09.743Z,22.56
2018-05-25T01:53:41.326Z,22.60
2018-05-25T01:54:12.905Z,22.56
2018-05-25T01:54:44.511Z,22.59
2018-05-25T01:55:16.112Z,22.59
2018-05-25T01:55:47.714Z,22.57
2018-05-25T01:56:19.298Z,22.55
2018-05-25T01:56:50.941Z,22.51
2018-05-25T01:57:22.566Z,22.49
2018-05-25T01:57:54.165Z,22.46
2018-05-25T01:58:25.744Z,22.44
2018-05-25T01:58:57.336Z,22.42
2018-05-25T01:59:28.917Z,22.40
2018-05-25T02:00:00.525Z,22.38
2018-05-25T02:00:32.137Z,22.36
2018-05-25T02:01:03.722Z,22.34
2018-05-25T02:01:38.654Z,22.33
2018-05-25T02:02:10.252Z,22.21
2018-05-25T02:02:41.901Z,22.30
2018-05-25T02:03:13.507Z,22.30
2018-05-25T02:03:45.084Z,22.28
2018-05-25T02:04:16.662Z,22.26
2018-05-25T02:04:48.238Z,22.27
2018-05-25T02:05:19.822Z,22.26
2018-05-25T02:05:51.421Z,22.26
2018-05-25T02:06:23.016Z,22.25
2018-05-25T02:06:54.604Z,22.25
2018-05-25T02:07:26.212Z,22.25
2018-05-25T02:07:57.848Z,22.24
2018-05-25T02:08:29.461Z,22.24
2018-05-25T02:09:01.041Z,22.24
2018-05-25T02:09:32.646Z,22.23
2018-05-25T02:10:04.255Z,22.21
2018-05-25T02:10:35.838Z,22.23
2018-05-25T02:11:07.428Z,22.22
2018-05-25T02:11:39.026Z,22.23
2018-05-25T02:12:10.596Z,22.21
2018-05-25T02:12:42.208Z,22.22
2018-05-25T02:13:13.776Z,22.22
2018-05-25T02:13:45.368Z,22.22
2018-05-25T02:14:16.964Z,22.21
2018-05-25T02:14:48.553Z,22.22
2018-05-25T02:15:20.158Z,22.21
2018-05-25T02:15:51.760Z,22.22
2018-05-25T02:16:23.345Z,22.22
2018-05-25T02:16:54.936Z,22.23
2018-05-25T02:17:26.576Z,22.24
2018-05-25T02:17:58.148Z,22.24
2018-05-25T02:18:29.730Z,22.24
2018-05-25T02:19:01.308Z,22.25
2018-05-25T02:19:32.898Z,22.26
2018-05-25T02:20:04.501Z,22.26
2018-05-25T02:20:36.113Z,22.26
2018-05-25T02:21:07.823Z,22.25
2018-05-25T02:21:39.433Z,22.27
2018-05-25T02:22:11.009Z,22.27
2018-05-25T02:22:42.576Z,22.28
2018-05-25T02:23:14.185Z,22.28
2018-05-25T02:23:45.862Z,22.28
2018-05-25T02:24:17.445Z,22.27
2018-05-25T02:24:49.053Z,22.28
2018-05-25T02:25:20.629Z,22.28
2018-05-25T02:25:52.214Z,22.28
2018-05-25T02:26:23.798Z,22.28
2018-05-25T02:26:55.396Z,22.28
2018-05-25T02:27:27.006Z,22.27
2018-05-25T02:27:58.613Z,22.27
2018-05-25T02:28:30.266Z,22.25
2018-05-25T02:29:01.850Z,22.26
2018-05-25T02:29:33.420Z,22.26
2018-05-25T02:30:05.002Z,22.25
2018-05-25T02:30:36.576Z,22.25
2018-05-25T02:31:08.177Z,22.24
2018-05-25T02:31:39.753Z,22.24
2018-05-25T02:32:11.321Z,22.23
2018-05-25T02:32:42.925Z,22.23
2018-05-25T02:33:14.520Z,22.23
2018-05-25T02:33:46.149Z,22.23
2018-05-25T02:34:17.749Z,22.20
2018-05-25T02:34:49.330Z,22.22
2018-05-25T02:35:21.082Z,22.22
2018-05-25T02:35:52.637Z,22.22
2018-05-25T02:36:24.208Z,22.21
2018-05-25T02:36:55.789Z,22.21
2018-05-25T02:37:27.394Z,22.21
2018-05-25T02:37:58.996Z,22.20
2018-05-25T02:38:30.592Z,22.18
2018-05-25T02:39:02.226Z,22.19
2018-05-25T02:39:33.820Z,22.18
2018-05-25T02:40:05.400Z,22.19
2018-05-25T02:40:37.008Z,22.20
2018-05-25T02:41:08.594Z,22.19
2018-05-25T02:41:40.188Z,22.20
2018-05-25T02:42:11.816Z,22.20
2018-05-25T02:42:43.398Z,22.20
2018-05-25T02:43:14.965Z,22.19
2018-05-25T02:43:46.542Z,22.19
2018-05-25T02:44:18.140Z,22.20
2018-05-25T02:44:49.745Z,22.20
2018-05-25T02:45:21.331Z,22.20
2018-05-25T02:45:53.259Z,22.19
2018-05-25T02:46:24.838Z,22.20
2018-05-25T02:46:56.412Z,22.19
2018-05-25T02:47:28.054Z,22.19
2018-05-25T02:47:59.629Z,22.19
2018-05-25T02:48:31.233Z,22.20
2018-05-25T02:49:02.808Z,22.20
2018-05-25T02:49:34.390Z,22.20
2018-05-25T02:50:05.965Z,22.19
2018-05-25T02:50:37.546Z,22.21
2018-05-25T02:51:09.154Z,22.21
2018-05-25T02:51:40.747Z,22.22
2018-05-25T02:52:12.392Z,22.23
2018-05-25T02:52:44.002Z,22.23
2018-05-25T02:53:15.591Z,22.23
2018-05-25T02:53:47.189Z,22.23
2018-05-25T02:54:18.791Z,22.22
2018-05-25T02:54:50.382Z,22.22
2018-05-25T02:55:21.952Z,22.22
2018-05-25T02:55:53.563Z,22.21
2018-05-25T02:56:25.157Z,22.23
2018-05-25T02:56:56.763Z,22.21
2018-05-25T02:57:28.404Z,22.21
2018-05-25T02:58:00.054Z,22.21
2018-05-25T02:58:31.693Z,22.21
2018-05-25T02:59:03.278Z,22.20
2018-05-25T02:59:34.858Z,22.19
2018-05-25T03:00:06.458Z,22.19
2018-05-25T03:00:38.064Z,22.18
2018-05-25T03:01:09.659Z,22.18
2018-05-25T03:01:41.362Z,22.18
2018-05-25T03:02:12.969Z,22.18
2018-05-25T03:02:44.619Z,22.18
2018-05-25T03:03:16.226Z,22.17
2018-05-25T03:03:47.858Z,22.17
2018-05-25T03:04:19.466Z,22.17
2018-05-25T03:04:51.045Z,22.17
2018-05-25T03:05:22.658Z,22.16
2018-05-25T03:05:54.246Z,22.14
2018-05-25T03:06:25.837Z,22.17
2018-05-25T03:06:57.441Z,22.15
2018-05-25T03:07:29.013Z,22.16
2018-05-25T03:08:00.591Z,22.14
2018-05-25T03:08:32.246Z,22.15
2018-05-25T03:09:03.894Z,22.14
2018-05-25T03:09:35.482Z,22.14
2018-05-25T03:10:07.094Z,22.14
2018-05-25T03:10:38.682Z,22.13
2018-05-25T03:11:10.266Z,22.11
2018-05-25T03:11:41.864Z,22.14
2018-05-25T03:12:13.536Z,22.14
2018-05-25T03:12:45.108Z,22.13
2018-05-25T03:13:16.714Z,22.13
2018-05-25T03:13:48.322Z,22.13
2018-05-25T03:14:19.965Z,22.13
2018-05-25T03:14:51.578Z,22.13
2018-05-25T03:15:23.166Z,22.13
2018-05-25T03:15:54.762Z,22.13
2018-05-25T03:16:26.346Z,22.13
2018-05-25T03:16:58.034Z,22.13
2018-05-25T03:17:29.617Z,22.13
2018-05-25T03:18:01.226Z,22.11
2018-05-25T03:18:32.817Z,22.12
2018-05-25T03:19:04.384Z,22.13
2018-05-25T03:19:36.015Z,22.13
2018-05-25T03:20:07.588Z,22.12
2018-05-25T03:20:39.192Z,22.12
2018-05-25T03:21:10.797Z,22.12
2018-05-25T03:21:42.376Z,22.12
2018-05-25T03:22:13.958Z,22.12
2018-05-25T03:22:45.532Z,22.12
2018-05-25T03:23:17.135Z,22.11
2018-05-25T03:23:48.716Z,22.11
2018-05-25T03:24:20.352Z,22.11
2018-05-25T03:24:52.006Z,22.11
2018-05-25T03:25:23.593Z,22.11
2018-05-25T03:25:55.188Z,22.10
2018-05-25T03:26:26.785Z,22.11
2018-05-25T03:26:58.384Z,22.11
2018-05-25T03:27:29.974Z,22.11
2018-05-25T03:28:01.559Z,22.11
2018-05-25T03:28:33.202Z,22.09
2018-05-25T03:29:04.810Z,22.10
2018-05-25T03:29:36.422Z,22.10
2018-05-25T03:30:08.037Z,22.09
2018-05-25T03:30:39.619Z,22.11
2018-05-25T03:31:11.216Z,22.10
2018-05-25T03:31:42.798Z,22.11
2018-05-25T03:32:14.383Z,22.11
2018-05-25T03:32:45.989Z,22.11
2018-05-25T03:33:17.606Z,22.10
2018-05-25T03:33:49.254Z,22.12
2018-05-25T03:34:20.902Z,22.12
2018-05-25T03:34:52.553Z,22.12
2018-05-25T03:35:24.157Z,22.12
2018-05-25T03:35:55.752Z,22.13
2018-05-25T03:36:27.337Z,22.12
2018-05-25T03:36:58.945Z,22.12
2018-05-25T03:37:30.555Z,22.12
2018-05-25T03:38:02.158Z,22.11
2018-05-25T03:38:33.745Z,22.12
2018-05-25T03:39:05.333Z,22.12
2018-05-25T03:39:36.958Z,22.12
2018-05-25T03:40:08.557Z,22.13
2018-05-25T03:40:40.141Z,22.13
2018-05-25T03:41:11.798Z,22.14
2018-05-25T03:41:43.401Z,22.13
2018-05-25T03:42:14.986Z,22.14
2018-05-25T03:42:46.593Z,22.15
2018-05-25T03:43:18.174Z,22.15
2018-05-25T03:43:49.764Z,22.16
2018-05-25T03:44:21.346Z,22.17
2018-05-25T03:44:52.946Z,22.17
2018-05-25T03:45:24.558Z,22.18
2018-05-25T03:45:56.165Z,22.17
2018-05-25T03:46:27.785Z,22.18
2018-05-25T03:46:59.370Z,22.18
2018-05-25T03:47:30.964Z,22.18
2018-05-25T03:48:02.562Z,22.18
2018-05-25T03:48:34.160Z,22.18
2018-05-25T03:49:05.740Z,22.18
2018-05-25T03:49:37.345Z,22.18
2018-05-25T03:50:08.917Z,22.19
2018-05-25T03:50:40.541Z,22.20
2018-05-25T03:51:12.122Z,22.21
2018-05-25T03:51:43.726Z,22.22
2018-05-25T03:52:15.327Z,22.22
2018-05-25T03:52:46.906Z,22.22
2018-05-25T03:53:18.509Z,22.22
2018-05-25T03:53:50.122Z,22.22
2018-05-25T03:54:21.702Z,22.22
2018-05-25T03:54:53.309Z,22.22
2018-05-25T03:55:24.890Z,22.22
2018-05-25T03:55:56.533Z,22.22
2018-05-25T03:56:28.128Z,22.21
2018-05-25T03:56:59.714Z,22.21
2018-05-25T03:57:31.294Z,22.20
2018-05-25T03:58:02.868Z,22.19
2018-05-25T03:58:34.450Z,22.19
2018-05-25T03:59:06.053Z,22.17
2018-05-25T03:59:37.662Z,22.16
2018-05-25T04:00:09.250Z,22.17
2018-05-25T04:00:40.875Z,22.16
2018-05-25T04:01:12.489Z,22.16
2018-05-25T04:01:44.106Z,22.16
2018-05-25T04:02:15.710Z,22.16
2018-05-25T04:02:47.309Z,22.17
2018-05-25T04:03:18.922Z,22.17
2018-05-25T04:03:50.501Z,22.18
2018-05-25T04:04:22.102Z,22.18
2018-05-25T04:04:53.750Z,22.18
2018-05-25T04:05:25.374Z,22.18
2018-05-25T04:05:56.959Z,22.21
2018-05-25T04:06:28.537Z,22.22
2018-05-25T04:07:00.138Z,22.14
2018-05-25T04:07:31.747Z,22.23
2018-05-25T04:08:03.320Z,22.26
2018-05-25T04:08:34.961Z,22.29
2018-05-25T04:09:06.571Z,22.37
2018-05-25T04:09:38.187Z,22.48
2018-05-25T04:10:09.790Z,22.62
2018-05-25T04:10:41.420Z,22.78
2018-05-25T04:11:13.033Z,22.96
2018-05-25T04:11:44.645Z,23.15
2018-05-25T04:12:16.256Z,23.33
2018-05-25T04:12:47.838Z,23.47
2018-05-25T04:13:19.412Z,23.60
2018-05-25T04:13:51.017Z,23.72
2018-05-25T04:14:22.637Z,23.82
2018-05-25T04:14:54.246Z,23.91
2018-05-25T04:15:25.850Z,23.97
2018-05-25T04:15:57.439Z,24.01
2018-05-25T04:16:29.045Z,24.05
2018-05-25T04:17:00.645Z,24.12
2018-05-25T04:17:32.285Z,24.21
2018-05-25T04:18:03.936Z,24.31
2018-05-25T04:18:35.545Z,24.42
2018-05-25T04:19:07.130Z,24.56
2018-05-25T04:19:38.700Z,24.69
2018-05-25T04:20:10.286Z,24.83
2018-05-25T04:20:41.894Z,24.93
2018-05-25T04:21:13.508Z,25.02
2018-05-25T04:21:45.126Z,25.07
2018-05-25T04:22:16.729Z,25.09
2018-05-25T04:22:48.342Z,25.10
2018-05-25T04:23:19.983Z,25.08
2018-05-25T04:23:51.598Z,25.08
2018-05-25T04:24:23.209Z,25.07
2018-05-25T04:24:54.793Z,25.05
2018-05-25T04:25:26.402Z,25.02
2018-05-25T04:25:58.010Z,24.96
2018-05-25T04:26:29.622Z,24.94
2018-05-25T04:27:01.233Z,24.82
2018-05-25T04:27:32.808Z,24.87
2018-05-25T04:28:04.435Z,24.86
2018-05-25T04:28:36.008Z,24.85
2018-05-25T04:29:07.646Z,24.87
2018-05-25T04:29:39.229Z,24.87
2018-05-25T04:30:10.818Z,24.90
2018-05-25T04:30:42.422Z,24.93
2018-05-25T04:31:14.009Z,24.95
2018-05-25T04:31:45.590Z,24.99
2018-05-25T04:32:17.194Z,25.03
2018-05-25T04:32:48.772Z,25.07
2018-05-25T04:33:20.354Z,25.10
2018-05-25T04:33:51.953Z,25.14
2018-05-25T04:34:23.601Z,25.18
2018-05-25T04:34:55.253Z,25.22
2018-05-25T04:35:26.866Z,25.28
2018-05-25T04:35:58.451Z,25.33
2018-05-25T04:36:30.048Z,25.39
2018-05-25T04:37:01.638Z,25.43
2018-05-25T04:37:33.208Z,25.46
2018-05-25T04:38:04.840Z,25.45
2018-05-25T04:38:36.454Z,25.45
2018-05-25T04:39:08.038Z,25.43
2018-05-25T04:39:39.626Z,25.39
2018-05-25T04:40:11.274Z,25.40
2018-05-25T04:40:42.881Z,25.42
2018-05-25T04:41:14.494Z,25.44
2018-05-25T04:41:46.150Z,25.43
2018-05-25T04:42:17.728Z,25.36
2018-05-25T04:42:49.314Z,25.31
2018-05-25T04:43:20.938Z,25.23
2018-05-25T04:43:52.498Z,25.18
2018-05-25T04:44:24.148Z,25.08
2018-05-25T04:44:55.798Z,25.01
2018-05-25T04:45:27.386Z,24.94
2018-05-25T04:45:58.980Z,24.87
2018-05-25T04:46:30.570Z,24.80
2018-05-25T04:47:02.178Z,24.73
2018-05-25T04:47:33.755Z,24.66
2018-05-25T04:48:05.338Z,24.61
2018-05-25T04:48:36.937Z,24.54
2018-05-25T04:49:08.570Z,24.44
2018-05-25T04:49:40.178Z,24.36
2018-05-25T04:50:11.762Z,24.26
2018-05-25T04:50:43.386Z,24.15
2018-05-25T04:51:14.965Z,24.03
2018-05-25T04:51:46.582Z,23.95
2018-05-25T04:52:18.165Z,23.85
2018-05-25T04:52:49.781Z,23.76
2018-05-25T04:53:21.356Z,23.67
2018-05-25T04:53:52.992Z,23.59
2018-05-25T04:54:24.574Z,23.51
2018-05-25T04:54:56.154Z,23.45
2018-05-25T04:55:27.757Z,23.38
2018-05-25T04:55:59.342Z,23.33
2018-05-25T04:56:30.961Z,23.26
2018-05-25T04:57:02.570Z,23.21
2018-05-25T04:57:34.178Z,23.15
2018-05-25T04:58:05.902Z,23.10
2018-05-25T04:58:37.486Z,22.98
2018-05-25T04:59:09.083Z,23.00
2018-05-25T04:59:40.694Z,22.98
2018-05-25T05:00:12.282Z,22.94
2018-05-25T05:00:43.886Z,22.92
2018-05-25T05:01:15.460Z,22.89
2018-05-25T05:01:47.051Z,22.87
2018-05-25T05:02:18.633Z,22.83
2018-05-25T05:02:50.226Z,22.81
2018-05-25T05:03:21.878Z,22.79
2018-05-25T05:03:53.485Z,22.77
2018-05-25T05:04:25.066Z,22.74
2018-05-25T05:04:56.752Z,22.73
2018-05-25T05:05:28.405Z,22.72
2018-05-25T05:06:00.009Z,22.70
2018-05-25T05:06:31.584Z,22.68
2018-05-25T05:07:03.322Z,22.66
2018-05-25T05:07:34.897Z,22.65
2018-05-25T05:08:06.498Z,22.64
2018-05-25T05:08:38.213Z,22.63
2018-05-25T05:09:09.816Z,22.51
2018-05-25T05:09:41.402Z,22.59
2018-05-25T05:10:12.986Z,22.58
2018-05-25T05:10:44.556Z,22.56
2018-05-25T05:11:16.210Z,22.55
2018-05-25T05:11:47.821Z,22.53
2018-05-25T05:12:19.532Z,22.52
2018-05-25T05:12:52.314Z,22.41
2018-05-25T05:13:24.642Z,22.50
2018-05-25T05:13:57.444Z,22.49
2018-05-25T05:15:18.938Z,22.45
2018-05-25T05:15:50.701Z,22.45
2018-05-25T05:16:22.332Z,22.43
2018-05-25T05:16:53.926Z,22.42
2018-05-25T05:17:25.497Z,22.41
2018-05-25T05:17:57.115Z,22.38
2018-05-25T05:18:28.740Z,22.39
2018-05-25T05:19:00.348Z,22.38
2018-05-25T05:19:31.932Z,22.37
2018-05-25T05:20:03.545Z,22.36
2018-05-25T05:20:35.154Z,22.35
2018-05-25T05:21:06.725Z,22.35
2018-05-25T05:21:38.317Z,22.33
2018-05-25T05:22:09.900Z,22.33
2018-05-25T05:22:41.535Z,22.33
2018-05-25T05:23:13.146Z,22.30
2018-05-25T05:23:44.728Z,22.31
2018-05-25T05:24:16.307Z,22.31
2018-05-25T05:24:47.918Z,22.30
2018-05-25T05:25:19.525Z,22.30
2018-05-25T05:25:51.140Z,22.29
2018-05-25T05:26:22.732Z,22.29
2018-05-25T05:26:54.333Z,22.28
2018-05-25T05:27:25.942Z,22.28
2018-05-25T05:27:57.584Z,22.28
2018-05-25T05:28:29.173Z,22.27
2018-05-25T05:29:00.762Z,22.27
2018-05-25T05:29:32.353Z,22.26
2018-05-25T05:30:03.962Z,22.27
2018-05-25T05:30:35.569Z,22.26
2018-05-25T05:31:07.173Z,22.26
2018-05-25T05:31:38.760Z,22.26
2018-05-25T05:32:10.338Z,22.25
2018-05-25T05:32:41.961Z,22.25
2018-05-25T05:33:13.546Z,22.24
2018-05-25T05:33:45.126Z,22.25
2018-05-25T05:34:16.729Z,22.24
2018-05-25T05:34:48.333Z,22.24
2018-05-25T05:35:19.944Z,22.24
2018-05-25T05:35:51.530Z,22.23
2018-05-25T05:36:23.114Z,22.23
2018-05-25T05:36:54.688Z,22.22
2018-05-25T05:37:26.494Z,22.22
2018-05-25T05:37:58.144Z,22.23
2018-05-25T05:38:29.740Z,22.23
2018-05-25T05:39:01.353Z,22.23
2018-05-25T05:39:32.942Z,22.23
2018-05-25T05:40:04.526Z,22.23
2018-05-25T05:40:36.096Z,22.23
2018-05-25T05:41:07.731Z,21.77
2018-05-25T05:41:39.312Z,22.24
2018-05-25T05:42:10.958Z,22.24
2018-05-25T05:42:44.083Z,22.23
2018-05-25T05:43:26.716Z,22.23
2018-05-25T05:44:01.400Z,22.23
2018-05-25T05:44:36.169Z,22.22
2018-05-25T05:45:07.890Z,22.22
2018-05-25T05:45:39.460Z,22.22
2018-05-25T05:46:11.050Z,22.22
2018-05-25T05:46:43.422Z,22.22
2018-05-25T05:47:15.131Z,22.22
2018-05-25T05:47:47.175Z,22.22
2018-05-25T05:48:18.784Z,22.22
2018-05-25T05:48:50.454Z,22.00
2018-05-25T05:49:22.086Z,22.21
2018-05-25T05:49:53.674Z,22.21
2018-05-25T05:50:25.298Z,22.21
2018-05-25T05:50:56.953Z,22.20
2018-05-25T05:51:28.518Z,22.21
2018-05-25T05:52:00.126Z,22.19
2018-05-25T05:52:31.724Z,22.20
2018-05-25T05:53:03.333Z,22.20
2018-05-25T05:53:34.918Z,22.20
2018-05-25T05:54:06.489Z,22.17
2018-05-25T05:54:38.074Z,22.19
2018-05-25T05:55:11.467Z,22.19
2018-05-25T05:55:43.060Z,22.18
2018-05-25T05:56:14.666Z,22.18
2018-05-25T05:56:46.260Z,22.18
2018-05-25T05:57:17.869Z,22.18
2018-05-25T05:57:49.464Z,22.18
2018-05-25T05:58:21.057Z,22.18
2018-05-25T05:58:52.650Z,22.18
2018-05-25T05:59:24.237Z,22.17
2018-05-25T05:59:55.852Z,22.18
2018-05-25T06:00:27.487Z,22.18
2018-05-25T06:00:59.091Z,22.17
2018-05-25T06:01:30.706Z,22.17
2018-05-25T06:02:02.334Z,22.17
2018-05-25T06:02:33.951Z,22.17
2018-05-25T06:03:05.538Z,22.17
2018-05-25T06:03:37.122Z,22.16
2018-05-25T06:04:08.719Z,22.16
2018-05-25T06:04:40.330Z,22.16
2018-05-25T06:05:11.934Z,22.16
2018-05-25T06:05:43.516Z,22.17
2018-05-25T06:06:15.142Z,22.16
2018-05-25T06:06:46.731Z,22.16
2018-05-25T06:07:18.310Z,22.16
2018-05-25T06:07:49.889Z,22.16
2018-05-25T06:08:21.493Z,22.16
2018-05-25T06:08:53.102Z,22.15
2018-05-25T06:09:24.689Z,22.15
2018-05-25T06:09:56.277Z,22.15
2018-05-25T06:10:27.901Z,22.14
2018-05-25T06:10:59.501Z,22.14
2018-05-25T06:11:31.091Z,22.14
2018-05-25T06:12:02.661Z,22.14
2018-05-25T06:12:34.242Z,22.14
2018-05-25T06:13:05.846Z,22.14
2018-05-25T06:13:37.614Z,22.13
2018-05-25T06:14:09.212Z,22.14
2018-05-25T06:14:40.807Z,22.14
2018-05-25T06:15:12.414Z,22.13
2018-05-25T06:15:44.002Z,22.12
2018-05-25T06:16:15.572Z,22.14
2018-05-25T06:16:47.233Z,22.14
2018-05-25T06:17:18.819Z,22.14
2018-05-25T06:17:50.398Z,22.14
2018-05-25T06:18:21.990Z,22.13
2018-05-25T06:18:53.634Z,22.14
2018-05-25T06:19:25.214Z,22.14
2018-05-25T06:19:56.824Z,22.14
2018-05-25T06:20:28.396Z,22.15
2018-05-25T06:20:59.982Z,22.16
2018-05-25T06:21:31.585Z,22.16
2018-05-25T06:22:03.185Z,22.17
2018-05-25T06:22:34.776Z,22.18
2018-05-25T06:23:06.382Z,22.18
2018-05-25T06:23:38.030Z,22.19
2018-05-25T06:24:09.618Z,22.20
2018-05-25T06:24:41.193Z,22.22
2018-05-25T06:25:12.788Z,22.23
2018-05-25T06:25:44.379Z,22.24
2018-05-25T06:26:15.952Z,22.26
2018-05-25T06:26:47.563Z,22.28
2018-05-25T06:27:19.174Z,22.29
2018-05-25T06:27:50.798Z,22.30
2018-05-25T06:28:22.381Z,22.33
2018-05-25T06:28:53.965Z,22.35
2018-05-25T06:29:25.612Z,22.36
2018-05-25T06:29:57.211Z,22.40
2018-05-25T06:30:28.808Z,22.41
2018-05-25T06:31:00.416Z,22.43
2018-05-25T06:31:32.041Z,22.45
2018-05-25T06:32:03.646Z,22.46
2018-05-25T06:32:35.230Z,22.50
2018-05-25T06:33:06.801Z,22.52
2018-05-25T06:33:38.372Z,22.54
2018-05-25T06:34:09.963Z,22.57
2018-05-25T06:34:41.547Z,22.57
2018-05-25T06:35:13.121Z,22.59
2018-05-25T06:35:44.742Z,22.61
2018-05-25T06:36:16.312Z,22.63
2018-05-25T06:36:47.908Z,22.64
2018-05-25T06:37:19.538Z,22.66
2018-05-25T06:37:52.071Z,22.66
2018-05-25T06:38:23.861Z,22.68
2018-05-25T06:38:58.107Z,22.69
2018-05-25T06:39:30.236Z,22.70
2018-05-25T06:40:02.421Z,22.71
2018-05-25T06:40:34.562Z,22.71
2018-05-25T06:41:06.484Z,22.72
2018-05-25T06:41:39.433Z,22.73
2018-05-25T06:42:23.052Z,22.74
2018-05-25T06:42:55.892Z,22.76
2018-05-25T06:43:28.938Z,22.76
2018-05-25T06:44:51.053Z,22.77
2018-05-25T06:45:22.790Z,22.78
2018-05-25T06:45:57.931Z,22.79
2018-05-25T06:46:32.823Z,22.80
2018-05-25T06:47:07.641Z,22.80
2018-05-25T06:47:41.863Z,22.82
2018-05-25T06:48:52.716Z,22.83
2018-05-25T06:49:25.662Z,22.83
2018-05-25T06:50:00.280Z,22.83
2018-05-25T06:50:35.249Z,22.84